sensor_id;sensor_type;location;lat;lon;timestamp;P1;durP1;ratioP1;P2;durP2;ratioP2
15061;SDS011;7630;50.306;8.566;2022-11-02T00:00:57;8.70;;;3.13;;
15061;SDS011;7630;50.306;8.566;2022-11-02T00:05:01;11.87;;;3.43;;
15061;SDS011;7630;50.306;8.566;2022-11-02T00:09:02;13.77;;;3.67;;
15061;SDS011;7630;50.306;8.566;2022-11-02T00:13:03;12.17;;;3.83;;
15061;SDS011;7630;50.306;8.566;2022-11-02T00:17:05;12.17;;;3.00;;
15061;SDS011;7630;50.306;8.566;2022-11-02T00:21:07;7.50;;;3.03;;
15061;SDS011;7630;50.306;8.566;2022-11-02T00:25:08;11.33;;;3.07;;
15061;SDS011;7630;50.306;8.566;2022-11-02T00:29:12;13.53;;;4.40;;
15061;SDS011;7630;50.306;8.566;2022-11-02T00:33:13;6.77;;;3.27;;
15061;SDS011;7630;50.306;8.566;2022-11-02T00:37:14;10.83;;;3.73;;
15061;SDS011;7630;50.306;8.566;2022-11-02T00:41:18;15.30;;;3.93;;
15061;SDS011;7630;50.306;8.566;2022-11-02T00:45:20;6.50;;;3.00;;
15061;SDS011;7630;50.306;8.566;2022-11-02T00:49:22;8.40;;;3.53;;
15061;SDS011;7630;50.306;8.566;2022-11-02T00:53:23;8.40;;;3.17;;
15061;SDS011;7630;50.306;8.566;2022-11-02T00:57:24;8.17;;;3.93;;
15061;SDS011;7630;50.306;8.566;2022-11-02T01:01:25;13.97;;;3.57;;
15061;SDS011;7630;50.306;8.566;2022-11-02T01:05:27;8.03;;;3.50;;
15061;SDS011;7630;50.306;8.566;2022-11-02T01:09:29;13.33;;;3.07;;
15061;SDS011;7630;50.306;8.566;2022-11-02T01:13:30;5.40;;;2.97;;
15061;SDS011;7630;50.306;8.566;2022-11-02T01:17:31;12.13;;;4.37;;
15061;SDS011;7630;50.306;8.566;2022-11-02T01:21:32;12.03;;;5.17;;
15061;SDS011;7630;50.306;8.566;2022-11-02T01:25:33;11.37;;;3.80;;
15061;SDS011;7630;50.306;8.566;2022-11-02T01:29:34;9.53;;;3.70;;
15061;SDS011;7630;50.306;8.566;2022-11-02T01:33:35;11.40;;;5.40;;
15061;SDS011;7630;50.306;8.566;2022-11-02T01:37:37;9.83;;;3.80;;
15061;SDS011;7630;50.306;8.566;2022-11-02T01:41:38;10.23;;;4.00;;
15061;SDS011;7630;50.306;8.566;2022-11-02T01:45:39;9.77;;;3.87;;
15061;SDS011;7630;50.306;8.566;2022-11-02T01:49:43;11.63;;;4.13;;
15061;SDS011;7630;50.306;8.566;2022-11-02T01:53:47;12.20;;;3.80;;
15061;SDS011;7630;50.306;8.566;2022-11-02T01:57:54;5.83;;;3.60;;
15061;SDS011;7630;50.306;8.566;2022-11-02T02:02:02;10.80;;;3.73;;
15061;SDS011;7630;50.306;8.566;2022-11-02T02:06:07;5.73;;;3.13;;
15061;SDS011;7630;50.306;8.566;2022-11-02T02:10:10;10.33;;;3.83;;
15061;SDS011;7630;50.306;8.566;2022-11-02T02:14:15;12.83;;;3.43;;
15061;SDS011;7630;50.306;8.566;2022-11-02T02:18:20;11.43;;;4.30;;
15061;SDS011;7630;50.306;8.566;2022-11-02T02:30:56;15.23;;;4.33;;
15061;SDS011;7630;50.306;8.566;2022-11-02T02:35:06;9.57;;;3.60;;
15061;SDS011;7630;50.306;8.566;2022-11-02T02:43:36;7.00;;;3.30;;
15061;SDS011;7630;50.306;8.566;2022-11-02T02:47:48;4.30;;;2.80;;
15061;SDS011;7630;50.306;8.566;2022-11-02T02:51:51;8.80;;;3.00;;
15061;SDS011;7630;50.306;8.566;2022-11-02T02:55:55;8.40;;;4.00;;
15061;SDS011;7630;50.306;8.566;2022-11-02T02:59:59;9.63;;;3.53;;
15061;SDS011;7630;50.306;8.566;2022-11-02T03:04:00;7.07;;;2.80;;
15061;SDS011;7630;50.306;8.566;2022-11-02T03:08:02;7.17;;;3.30;;
15061;SDS011;7630;50.306;8.566;2022-11-02T03:29:20;6.67;;;3.67;;
15061;SDS011;7630;50.306;8.566;2022-11-02T03:33:37;11.33;;;4.00;;
15061;SDS011;7630;50.306;8.566;2022-11-02T03:37:41;12.07;;;3.57;;
15061;SDS011;7630;50.306;8.566;2022-11-02T03:41:54;8.97;;;3.40;;
15061;SDS011;7630;50.306;8.566;2022-11-02T03:45:58;6.60;;;4.07;;
15061;SDS011;7630;50.306;8.566;2022-11-02T03:50:03;8.77;;;4.17;;
15061;SDS011;7630;50.306;8.566;2022-11-02T03:54:15;8.80;;;3.50;;
15061;SDS011;7630;50.306;8.566;2022-11-02T03:58:17;9.80;;;4.30;;
15061;SDS011;7630;50.306;8.566;2022-11-02T04:02:18;12.10;;;3.73;;
15061;SDS011;7630;50.306;8.566;2022-11-02T04:06:19;9.50;;;4.77;;
15061;SDS011;7630;50.306;8.566;2022-11-02T04:10:20;13.27;;;3.90;;
15061;SDS011;7630;50.306;8.566;2022-11-02T04:14:21;9.77;;;3.60;;
15061;SDS011;7630;50.306;8.566;2022-11-02T04:18:37;10.40;;;3.57;;
15061;SDS011;7630;50.306;8.566;2022-11-02T04:22:57;9.77;;;3.73;;
15061;SDS011;7630;50.306;8.566;2022-11-02T04:27:17;9.23;;;3.83;;
15061;SDS011;7630;50.306;8.566;2022-11-02T04:31:20;9.30;;;3.90;;
15061;SDS011;7630;50.306;8.566;2022-11-02T04:35:21;10.10;;;3.97;;
15061;SDS011;7630;50.306;8.566;2022-11-02T04:39:22;8.07;;;4.10;;
15061;SDS011;7630;50.306;8.566;2022-11-02T04:43:23;13.50;;;4.20;;
15061;SDS011;7630;50.306;8.566;2022-11-02T04:47:24;8.60;;;4.37;;
15061;SDS011;7630;50.306;8.566;2022-11-02T04:51:26;10.20;;;6.30;;
15061;SDS011;7630;50.306;8.566;2022-11-02T04:55:28;14.53;;;5.93;;
15061;SDS011;7630;50.306;8.566;2022-11-02T04:59:29;12.53;;;6.97;;
15061;SDS011;7630;50.306;8.566;2022-11-02T05:03:30;14.70;;;4.60;;
15061;SDS011;7630;50.306;8.566;2022-11-02T05:07:31;9.27;;;4.63;;
15061;SDS011;7630;50.306;8.566;2022-11-02T05:11:32;9.70;;;4.37;;
15061;SDS011;7630;50.306;8.566;2022-11-02T05:15:34;6.40;;;4.20;;
15061;SDS011;7630;50.306;8.566;2022-11-02T05:19:35;11.47;;;6.33;;
15061;SDS011;7630;50.306;8.566;2022-11-02T05:23:36;7.50;;;4.00;;
15061;SDS011;7630;50.306;8.566;2022-11-02T05:27:38;13.83;;;5.07;;
15061;SDS011;7630;50.306;8.566;2022-11-02T05:31:39;10.97;;;4.93;;
15061;SDS011;7630;50.306;8.566;2022-11-02T05:35:40;13.77;;;6.77;;
15061;SDS011;7630;50.306;8.566;2022-11-02T05:39:41;6.77;;;4.57;;
15061;SDS011;7630;50.306;8.566;2022-11-02T05:43:44;11.37;;;4.97;;
15061;SDS011;7630;50.306;8.566;2022-11-02T05:47:45;8.20;;;4.47;;
15061;SDS011;7630;50.306;8.566;2022-11-02T05:51:46;11.57;;;4.80;;
15061;SDS011;7630;50.306;8.566;2022-11-02T05:55:49;7.60;;;4.20;;
15061;SDS011;7630;50.306;8.566;2022-11-02T05:59:50;13.17;;;6.27;;
15061;SDS011;7630;50.306;8.566;2022-11-02T06:03:51;11.13;;;6.70;;
15061;SDS011;7630;50.306;8.566;2022-11-02T06:07:58;13.70;;;6.50;;
15061;SDS011;7630;50.306;8.566;2022-11-02T06:11:57;9.43;;;5.40;;
15061;SDS011;7630;50.306;8.566;2022-11-02T06:15:58;12.07;;;5.73;;
15061;SDS011;7630;50.306;8.566;2022-11-02T06:20:01;14.53;;;5.83;;
15061;SDS011;7630;50.306;8.566;2022-11-02T06:24:03;9.80;;;5.60;;
15061;SDS011;7630;50.306;8.566;2022-11-02T06:28:04;13.37;;;5.67;;
15061;SDS011;7630;50.306;8.566;2022-11-02T06:32:05;9.37;;;5.47;;
15061;SDS011;7630;50.306;8.566;2022-11-02T06:36:06;16.90;;;7.87;;
15061;SDS011;7630;50.306;8.566;2022-11-02T06:40:08;10.03;;;4.20;;
15061;SDS011;7630;50.306;8.566;2022-11-02T06:44:10;13.83;;;5.03;;
15061;SDS011;7630;50.306;8.566;2022-11-02T06:48:11;11.80;;;4.70;;
15061;SDS011;7630;50.306;8.566;2022-11-02T06:52:12;12.83;;;5.47;;
15061;SDS011;7630;50.306;8.566;2022-11-02T06:56:13;11.27;;;5.50;;
15061;SDS011;7630;50.306;8.566;2022-11-02T07:00:14;23.70;;;6.60;;
15061;SDS011;7630;50.306;8.566;2022-11-02T07:04:21;11.23;;;4.37;;
15061;SDS011;7630;50.306;8.566;2022-11-02T07:08:22;11.77;;;5.17;;
15061;SDS011;7630;50.306;8.566;2022-11-02T07:12:24;11.27;;;4.13;;
15061;SDS011;7630;50.306;8.566;2022-11-02T07:16:25;11.00;;;4.87;;
15061;SDS011;7630;50.306;8.566;2022-11-02T07:20:26;20.97;;;12.97;;
15061;SDS011;7630;50.306;8.566;2022-11-02T07:24:27;9.90;;;7.13;;
15061;SDS011;7630;50.306;8.566;2022-11-02T07:28:28;19.83;;;9.30;;
15061;SDS011;7630;50.306;8.566;2022-11-02T07:32:29;15.33;;;7.83;;
15061;SDS011;7630;50.306;8.566;2022-11-02T07:36:30;9.23;;;5.20;;
15061;SDS011;7630;50.306;8.566;2022-11-02T07:40:31;10.20;;;6.00;;
15061;SDS011;7630;50.306;8.566;2022-11-02T07:44:35;11.00;;;4.97;;
15061;SDS011;7630;50.306;8.566;2022-11-02T07:48:36;7.67;;;4.63;;
15061;SDS011;7630;50.306;8.566;2022-11-02T07:52:50;12.30;;;4.80;;
15061;SDS011;7630;50.306;8.566;2022-11-02T07:56:52;7.20;;;4.00;;
15061;SDS011;7630;50.306;8.566;2022-11-02T08:00:55;17.10;;;4.60;;
15061;SDS011;7630;50.306;8.566;2022-11-02T08:05:00;6.87;;;3.90;;
15061;SDS011;7630;50.306;8.566;2022-11-02T08:09:01;9.50;;;4.90;;
15061;SDS011;7630;50.306;8.566;2022-11-02T08:13:03;11.40;;;4.90;;
15061;SDS011;7630;50.306;8.566;2022-11-02T08:17:04;6.87;;;4.90;;
15061;SDS011;7630;50.306;8.566;2022-11-02T08:21:05;12.67;;;4.53;;
15061;SDS011;7630;50.306;8.566;2022-11-02T08:25:07;6.90;;;4.07;;
15061;SDS011;7630;50.306;8.566;2022-11-02T08:29:09;8.67;;;4.50;;
15061;SDS011;7630;50.306;8.566;2022-11-02T08:33:11;8.73;;;4.63;;
15061;SDS011;7630;50.306;8.566;2022-11-02T08:37:15;8.93;;;4.63;;
15061;SDS011;7630;50.306;8.566;2022-11-02T08:41:16;9.77;;;3.10;;
15061;SDS011;7630;50.306;8.566;2022-11-02T08:45:17;10.70;;;3.50;;
15061;SDS011;7630;50.306;8.566;2022-11-02T08:49:18;5.13;;;3.60;;
15061;SDS011;7630;50.306;8.566;2022-11-02T08:53:19;8.47;;;3.53;;
15061;SDS011;7630;50.306;8.566;2022-11-02T08:57:20;13.30;;;3.47;;
15061;SDS011;7630;50.306;8.566;2022-11-02T09:01:21;9.47;;;3.83;;
15061;SDS011;7630;50.306;8.566;2022-11-02T09:05:23;7.50;;;3.17;;
15061;SDS011;7630;50.306;8.566;2022-11-02T09:09:24;6.60;;;3.80;;
15061;SDS011;7630;50.306;8.566;2022-11-02T09:13:24;11.37;;;3.33;;
15061;SDS011;7630;50.306;8.566;2022-11-02T09:17:27;9.47;;;3.53;;
15061;SDS011;7630;50.306;8.566;2022-11-02T09:21:28;8.00;;;2.77;;
15061;SDS011;7630;50.306;8.566;2022-11-02T09:25:29;7.43;;;2.53;;
15061;SDS011;7630;50.306;8.566;2022-11-02T09:29:30;7.87;;;3.27;;
15061;SDS011;7630;50.306;8.566;2022-11-02T09:33:31;5.17;;;2.90;;
15061;SDS011;7630;50.306;8.566;2022-11-02T09:37:34;7.37;;;2.73;;
15061;SDS011;7630;50.306;8.566;2022-11-02T09:41:38;6.13;;;2.37;;
15061;SDS011;7630;50.306;8.566;2022-11-02T09:45:51;8.00;;;3.00;;
15061;SDS011;7630;50.306;8.566;2022-11-02T09:49:54;9.23;;;2.47;;
15061;SDS011;7630;50.306;8.566;2022-11-02T09:58:11;9.80;;;2.70;;
15061;SDS011;7630;50.306;8.566;2022-11-02T10:06:21;5.30;;;2.13;;
15061;SDS011;7630;50.306;8.566;2022-11-02T10:10:32;8.00;;;3.13;;
15061;SDS011;7630;50.306;8.566;2022-11-02T10:14:36;9.97;;;3.20;;
15061;SDS011;7630;50.306;8.566;2022-11-02T10:18:40;8.23;;;2.70;;
15061;SDS011;7630;50.306;8.566;2022-11-02T10:22:42;7.23;;;2.47;;
15061;SDS011;7630;50.306;8.566;2022-11-02T10:26:45;5.53;;;3.10;;
15061;SDS011;7630;50.306;8.566;2022-11-02T10:30:48;8.53;;;2.53;;
15061;SDS011;7630;50.306;8.566;2022-11-02T10:34:50;6.60;;;2.90;;
15061;SDS011;7630;50.306;8.566;2022-11-02T10:39:02;10.53;;;2.20;;
15061;SDS011;7630;50.306;8.566;2022-11-02T10:47:32;4.83;;;2.03;;
15061;SDS011;7630;50.306;8.566;2022-11-02T10:51:35;6.07;;;2.63;;
15061;SDS011;7630;50.306;8.566;2022-11-02T11:04:28;10.10;;;2.83;;
15061;SDS011;7630;50.306;8.566;2022-11-02T11:08:38;5.77;;;2.40;;
15061;SDS011;7630;50.306;8.566;2022-11-02T11:12:41;7.07;;;3.07;;
15061;SDS011;7630;50.306;8.566;2022-11-02T11:16:47;10.33;;;2.20;;
15061;SDS011;7630;50.306;8.566;2022-11-02T11:20:54;13.50;;;7.47;;
15061;SDS011;7630;50.306;8.566;2022-11-02T11:29:24;5.43;;;2.03;;
15061;SDS011;7630;50.306;8.566;2022-11-02T11:33:25;4.87;;;2.43;;
15061;SDS011;7630;50.306;8.566;2022-11-02T11:37:26;5.97;;;2.17;;
15061;SDS011;7630;50.306;8.566;2022-11-02T11:41:28;6.53;;;2.07;;
15061;SDS011;7630;50.306;8.566;2022-11-02T11:45:32;10.77;;;4.70;;
15061;SDS011;7630;50.306;8.566;2022-11-02T11:49:33;13.80;;;2.63;;
15061;SDS011;7630;50.306;8.566;2022-11-02T11:53:39;8.27;;;2.47;;
15061;SDS011;7630;50.306;8.566;2022-11-02T11:57:40;2.67;;;1.47;;
15061;SDS011;7630;50.306;8.566;2022-11-02T12:01:43;4.93;;;2.40;;
15061;SDS011;7630;50.306;8.566;2022-11-02T12:10:16;4.60;;;2.00;;
15061;SDS011;7630;50.306;8.566;2022-11-02T12:27:36;7.23;;;1.93;;
15061;SDS011;7630;50.306;8.566;2022-11-02T12:31:50;9.40;;;2.13;;
15061;SDS011;7630;50.306;8.566;2022-11-02T12:36:02;4.83;;;1.87;;
15061;SDS011;7630;50.306;8.566;2022-11-02T12:48:30;4.77;;;2.30;;
15061;SDS011;7630;50.306;8.566;2022-11-02T12:56:46;7.10;;;1.90;;
15061;SDS011;7630;50.306;8.566;2022-11-02T13:05:40;4.53;;;1.60;;
15061;SDS011;7630;50.306;8.566;2022-11-02T13:13:52;6.90;;;2.63;;
15061;SDS011;7630;50.306;8.566;2022-11-02T13:17:57;6.30;;;1.90;;
15061;SDS011;7630;50.306;8.566;2022-11-02T13:22:01;4.33;;;1.63;;
15061;SDS011;7630;50.306;8.566;2022-11-02T13:26:11;6.17;;;2.17;;
15061;SDS011;7630;50.306;8.566;2022-11-02T13:30:15;7.57;;;3.17;;
15061;SDS011;7630;50.306;8.566;2022-11-02T13:34:26;5.17;;;1.87;;
15061;SDS011;7630;50.306;8.566;2022-11-02T13:55:41;3.30;;;2.23;;
15061;SDS011;7630;50.306;8.566;2022-11-02T13:59:50;8.23;;;2.83;;
15061;SDS011;7630;50.306;8.566;2022-11-02T14:03:52;7.33;;;2.23;;
15061;SDS011;7630;50.306;8.566;2022-11-02T14:08:02;6.90;;;2.47;;
15061;SDS011;7630;50.306;8.566;2022-11-02T14:20:45;4.67;;;1.80;;
15061;SDS011;7630;50.306;8.566;2022-11-02T14:28:53;5.53;;;1.90;;
15061;SDS011;7630;50.306;8.566;2022-11-02T14:32:58;4.33;;;2.27;;
15061;SDS011;7630;50.306;8.566;2022-11-02T14:37:18;10.97;;;1.80;;
15061;SDS011;7630;50.306;8.566;2022-11-02T14:45:24;3.50;;;1.93;;
15061;SDS011;7630;50.306;8.566;2022-11-02T14:49:51;7.13;;;2.03;;
15061;SDS011;7630;50.306;8.566;2022-11-02T14:54:00;8.33;;;2.97;;
15061;SDS011;7630;50.306;8.566;2022-11-02T15:06:24;6.53;;;2.47;;
15061;SDS011;7630;50.306;8.566;2022-11-02T15:18:38;6.33;;;2.27;;
15061;SDS011;7630;50.306;8.566;2022-11-02T15:22:40;10.33;;;2.67;;
15061;SDS011;7630;50.306;8.566;2022-11-02T15:26:51;12.83;;;3.10;;
15061;SDS011;7630;50.306;8.566;2022-11-02T15:30:55;7.97;;;2.53;;
15061;SDS011;7630;50.306;8.566;2022-11-02T15:34:59;5.47;;;2.57;;
15061;SDS011;7630;50.306;8.566;2022-11-02T15:39:02;5.27;;;3.03;;
15061;SDS011;7630;50.306;8.566;2022-11-02T15:43:31;4.30;;;2.83;;
15061;SDS011;7630;50.306;8.566;2022-11-02T15:47:21;6.37;;;2.90;;
15061;SDS011;7630;50.306;8.566;2022-11-02T15:55:57;6.43;;;2.63;;
15061;SDS011;7630;50.306;8.566;2022-11-02T16:00:14;3.97;;;2.60;;
15061;SDS011;7630;50.306;8.566;2022-11-02T16:04:18;6.63;;;3.77;;
15061;SDS011;7630;50.306;8.566;2022-11-02T16:08:21;10.17;;;4.70;;
15061;SDS011;7630;50.306;8.566;2022-11-02T16:12:28;10.27;;;4.20;;
15061;SDS011;7630;50.306;8.566;2022-11-02T16:16:29;13.93;;;5.97;;
15061;SDS011;7630;50.306;8.566;2022-11-02T16:20:32;10.00;;;5.40;;
15061;SDS011;7630;50.306;8.566;2022-11-02T16:24:38;8.85;;;5.53;;
15061;SDS011;7630;50.306;8.566;2022-11-02T16:28:41;10.70;;;4.47;;
15061;SDS011;7630;50.306;8.566;2022-11-02T16:32:42;7.30;;;3.43;;
15061;SDS011;7630;50.306;8.566;2022-11-02T16:36:44;6.70;;;4.12;;
15061;SDS011;7630;50.306;8.566;2022-11-02T16:40:46;9.43;;;3.23;;
15061;SDS011;7630;50.306;8.566;2022-11-02T16:44:57;9.63;;;4.40;;
15061;SDS011;7630;50.306;8.566;2022-11-02T16:53:24;7.10;;;5.60;;
15061;SDS011;7630;50.306;8.566;2022-11-02T16:57:23;8.43;;;4.40;;
15061;SDS011;7630;50.306;8.566;2022-11-02T17:01:28;18.17;;;4.60;;
15061;SDS011;7630;50.306;8.566;2022-11-02T17:05:38;12.20;;;4.70;;
15061;SDS011;7630;50.306;8.566;2022-11-02T17:09:41;11.13;;;5.87;;
15061;SDS011;7630;50.306;8.566;2022-11-02T17:13:54;15.43;;;9.97;;
15061;SDS011;7630;50.306;8.566;2022-11-02T17:18:12;8.43;;;5.33;;
15061;SDS011;7630;50.306;8.566;2022-11-02T17:22:14;14.57;;;5.10;;
15061;SDS011;7630;50.306;8.566;2022-11-02T17:34:38;7.67;;;3.53;;
15061;SDS011;7630;50.306;8.566;2022-11-02T17:38:40;10.00;;;3.40;;
15061;SDS011;7630;50.306;8.566;2022-11-02T17:42:41;10.67;;;4.53;;
15061;SDS011;7630;50.306;8.566;2022-11-02T17:46:58;10.85;;;5.42;;
15061;SDS011;7630;50.306;8.566;2022-11-02T17:50:59;9.07;;;4.30;;
15061;SDS011;7630;50.306;8.566;2022-11-02T17:55:00;8.13;;;3.33;;
15061;SDS011;7630;50.306;8.566;2022-11-02T17:59:01;6.60;;;3.27;;
15061;SDS011;7630;50.306;8.566;2022-11-02T18:03:02;6.90;;;3.63;;
15061;SDS011;7630;50.306;8.566;2022-11-02T18:07:04;6.60;;;4.60;;
15061;SDS011;7630;50.306;8.566;2022-11-02T18:11:07;16.50;;;12.57;;
15061;SDS011;7630;50.306;8.566;2022-11-02T18:15:10;15.83;;;12.70;;
15061;SDS011;7630;50.306;8.566;2022-11-02T18:19:16;16.43;;;11.03;;
15061;SDS011;7630;50.306;8.566;2022-11-02T18:23:17;15.17;;;10.00;;
15061;SDS011;7630;50.306;8.566;2022-11-02T18:27:19;18.17;;;11.30;;
15061;SDS011;7630;50.306;8.566;2022-11-02T18:31:22;11.63;;;10.33;;
15061;SDS011;7630;50.306;8.566;2022-11-02T18:35:23;13.50;;;9.47;;
15061;SDS011;7630;50.306;8.566;2022-11-02T18:39:24;11.20;;;8.10;;
15061;SDS011;7630;50.306;8.566;2022-11-02T18:43:25;12.77;;;8.20;;
15061;SDS011;7630;50.306;8.566;2022-11-02T18:47:26;11.80;;;7.40;;
15061;SDS011;7630;50.306;8.566;2022-11-02T18:51:27;12.83;;;8.17;;
15061;SDS011;7630;50.306;8.566;2022-11-02T18:55:28;28.73;;;22.30;;
15061;SDS011;7630;50.306;8.566;2022-11-02T18:59:29;26.13;;;20.57;;
15061;SDS011;7630;50.306;8.566;2022-11-02T19:03:30;17.23;;;15.00;;
15061;SDS011;7630;50.306;8.566;2022-11-02T19:07:31;21.93;;;18.30;;
15061;SDS011;7630;50.306;8.566;2022-11-02T19:12:02;21.53;;;14.93;;
15061;SDS011;7630;50.306;8.566;2022-11-02T19:16:03;22.40;;;10.80;;
15061;SDS011;7630;50.306;8.566;2022-11-02T19:20:05;16.52;;;10.35;;
15061;SDS011;7630;50.306;8.566;2022-11-02T19:24:07;16.17;;;11.37;;
15061;SDS011;7630;50.306;8.566;2022-11-02T19:28:08;15.05;;;10.98;;
15061;SDS011;7630;50.306;8.566;2022-11-02T19:32:10;16.23;;;13.00;;
15061;SDS011;7630;50.306;8.566;2022-11-02T19:36:11;18.40;;;15.00;;
15061;SDS011;7630;50.306;8.566;2022-11-02T19:40:12;16.30;;;14.10;;
15061;SDS011;7630;50.306;8.566;2022-11-02T19:44:14;16.93;;;15.17;;
15061;SDS011;7630;50.306;8.566;2022-11-02T19:48:15;20.67;;;15.60;;
15061;SDS011;7630;50.306;8.566;2022-11-02T19:52:17;14.70;;;13.00;;
15061;SDS011;7630;50.306;8.566;2022-11-02T19:56:18;18.70;;;15.17;;
15061;SDS011;7630;50.306;8.566;2022-11-02T20:00:21;14.67;;;12.73;;
15061;SDS011;7630;50.306;8.566;2022-11-02T20:04:22;21.83;;;16.07;;
15061;SDS011;7630;50.306;8.566;2022-11-02T20:08:23;17.57;;;13.97;;
15061;SDS011;7630;50.306;8.566;2022-11-02T20:12:26;19.42;;;16.45;;
15061;SDS011;7630;50.306;8.566;2022-11-02T20:16:27;17.03;;;14.57;;
15061;SDS011;7630;50.306;8.566;2022-11-02T20:20:29;18.40;;;13.70;;
15061;SDS011;7630;50.306;8.566;2022-11-02T20:24:30;19.27;;;14.67;;
15061;SDS011;7630;50.306;8.566;2022-11-02T20:28:34;14.93;;;12.10;;
15061;SDS011;7630;50.306;8.566;2022-11-02T20:32:42;19.23;;;12.97;;
15061;SDS011;7630;50.306;8.566;2022-11-02T20:36:43;18.43;;;13.43;;
15061;SDS011;7630;50.306;8.566;2022-11-02T20:40:45;12.50;;;8.10;;
15061;SDS011;7630;50.306;8.566;2022-11-02T20:44:46;14.07;;;8.40;;
15061;SDS011;7630;50.306;8.566;2022-11-02T20:48:49;13.20;;;7.43;;
15061;SDS011;7630;50.306;8.566;2022-11-02T20:52:50;10.93;;;6.97;;
15061;SDS011;7630;50.306;8.566;2022-11-02T20:56:53;12.37;;;7.70;;
15061;SDS011;7630;50.306;8.566;2022-11-02T21:00:55;17.97;;;7.60;;
15061;SDS011;7630;50.306;8.566;2022-11-02T21:04:57;14.53;;;7.63;;
15061;SDS011;7630;50.306;8.566;2022-11-02T21:08:58;13.87;;;5.00;;
15061;SDS011;7630;50.306;8.566;2022-11-02T21:13:00;8.23;;;4.50;;
15061;SDS011;7630;50.306;8.566;2022-11-02T21:17:20;8.20;;;4.57;;
15061;SDS011;7630;50.306;8.566;2022-11-02T21:21:21;13.70;;;4.57;;
15061;SDS011;7630;50.306;8.566;2022-11-02T21:25:22;12.60;;;4.33;;
15061;SDS011;7630;50.306;8.566;2022-11-02T21:29:24;9.03;;;3.57;;
15061;SDS011;7630;50.306;8.566;2022-11-02T21:33:25;13.93;;;3.87;;
15061;SDS011;7630;50.306;8.566;2022-11-02T21:37:26;11.03;;;4.27;;
15061;SDS011;7630;50.306;8.566;2022-11-02T21:41:27;7.57;;;3.13;;
15061;SDS011;7630;50.306;8.566;2022-11-02T21:45:29;9.80;;;4.07;;
15061;SDS011;7630;50.306;8.566;2022-11-02T21:49:32;10.10;;;4.17;;
15061;SDS011;7630;50.306;8.566;2022-11-02T21:53:34;10.10;;;3.98;;
15061;SDS011;7630;50.306;8.566;2022-11-02T21:57:37;8.97;;;4.13;;
15061;SDS011;7630;50.306;8.566;2022-11-02T22:01:38;13.80;;;4.07;;
15061;SDS011;7630;50.306;8.566;2022-11-02T22:05:46;11.13;;;5.13;;
15061;SDS011;7630;50.306;8.566;2022-11-02T22:09:56;12.73;;;4.87;;
15061;SDS011;7630;50.306;8.566;2022-11-02T22:13:58;7.80;;;4.97;;
15061;SDS011;7630;50.306;8.566;2022-11-02T22:18:01;12.17;;;7.40;;
15061;SDS011;7630;50.306;8.566;2022-11-02T22:22:02;9.43;;;6.00;;
15061;SDS011;7630;50.306;8.566;2022-11-02T22:26:04;11.87;;;6.80;;
15061;SDS011;7630;50.306;8.566;2022-11-02T22:30:07;14.77;;;6.87;;
15061;SDS011;7630;50.306;8.566;2022-11-02T22:34:09;12.57;;;7.57;;
15061;SDS011;7630;50.306;8.566;2022-11-02T22:38:11;20.93;;;9.13;;
15061;SDS011;7630;50.306;8.566;2022-11-02T22:42:32;16.10;;;9.60;;
15061;SDS011;7630;50.306;8.566;2022-11-02T22:46:37;18.70;;;9.10;;
15061;SDS011;7630;50.306;8.566;2022-11-02T22:50:42;21.13;;;8.03;;
15061;SDS011;7630;50.306;8.566;2022-11-02T22:54:43;10.63;;;6.73;;
15061;SDS011;7630;50.306;8.566;2022-11-02T22:58:45;13.23;;;7.37;;
15061;SDS011;7630;50.306;8.566;2022-11-02T23:02:47;22.33;;;8.13;;
15061;SDS011;7630;50.306;8.566;2022-11-02T23:06:48;16.47;;;6.80;;
15061;SDS011;7630;50.306;8.566;2022-11-02T23:10:53;11.93;;;6.93;;
15061;SDS011;7630;50.306;8.566;2022-11-02T23:15:17;14.13;;;7.93;;
15061;SDS011;7630;50.306;8.566;2022-11-02T23:19:19;12.27;;;6.50;;
15061;SDS011;7630;50.306;8.566;2022-11-02T23:23:29;8.50;;;5.50;;
15061;SDS011;7630;50.306;8.566;2022-11-02T23:27:53;13.70;;;7.53;;
15061;SDS011;7630;50.306;8.566;2022-11-02T23:32:19;21.47;;;8.17;;
15061;SDS011;7630;50.306;8.566;2022-11-02T23:36:27;21.00;;;8.93;;
15061;SDS011;7630;50.306;8.566;2022-11-02T23:40:30;15.80;;;10.83;;
15061;SDS011;7630;50.306;8.566;2022-11-02T23:44:32;35.33;;;11.93;;
15061;SDS011;7630;50.306;8.566;2022-11-02T23:48:33;15.80;;;9.03;;
15061;SDS011;7630;50.306;8.566;2022-11-02T23:52:34;18.03;;;9.53;;
15061;SDS011;7630;50.306;8.566;2022-11-02T23:56:54;16.20;;;10.00;;
